sensor_id;sensor_type;location;lat;lon;timestamp;P1;durP1;ratioP1;P2;durP2;ratioP2
76568;SDS011;66828;44.530;0.094;2023-03-23T00:07:57;0.30;;;0.30;;
76568;SDS011;66828;44.530;0.094;2023-03-23T00:28:27;0.30;;;0.30;;
76568;SDS011;66828;44.530;0.094;2023-03-23T00:48:56;0.30;;;0.30;;
76568;SDS011;66828;44.530;0.094;2023-03-23T01:09:25;0.30;;;0.30;;
76568;SDS011;66828;44.530;0.094;2023-03-23T01:29:54;0.30;;;0.30;;
76568;SDS011;66828;44.530;0.094;2023-03-23T01:50:24;0.30;;;0.30;;
76568;SDS011;66828;44.530;0.094;2023-03-23T02:10:52;1.77;;;1.67;;
76568;SDS011;66828;44.530;0.094;2023-03-23T02:31:24;1.93;;;1.77;;
76568;SDS011;66828;44.530;0.094;2023-03-23T02:51:51;2.83;;;1.43;;
76568;SDS011;66828;44.530;0.094;2023-03-23T03:12:27;3.30;;;1.70;;
76568;SDS011;66828;44.530;0.094;2023-03-23T03:32:48;1.27;;;1.17;;
76568;SDS011;66828;44.530;0.094;2023-03-23T03:53:16;0.30;;;0.30;;
76568;SDS011;66828;44.530;0.094;2023-03-23T04:13:44;0.53;;;0.53;;
76568;SDS011;66828;44.530;0.094;2023-03-23T04:34:13;0.63;;;0.63;;
76568;SDS011;66828;44.530;0.094;2023-03-23T04:54:42;2.03;;;1.63;;
76568;SDS011;66828;44.530;0.094;2023-03-23T05:15:10;0.50;;;0.50;;
76568;SDS011;66828;44.530;0.094;2023-03-23T05:35:36;0.77;;;0.77;;
76568;SDS011;66828;44.530;0.094;2023-03-23T05:56:04;0.50;;;0.50;;
76568;SDS011;66828;44.530;0.094;2023-03-23T06:16:33;0.53;;;0.53;;
76568;SDS011;66828;44.530;0.094;2023-03-23T06:37:02;0.33;;;0.33;;
76568;SDS011;66828;44.530;0.094;2023-03-23T06:57:30;0.60;;;0.60;;
76568;SDS011;66828;44.530;0.094;2023-03-23T07:18:00;6.27;;;4.90;;
76568;SDS011;66828;44.530;0.094;2023-03-23T07:38:31;0.50;;;0.20;;
76568;SDS011;66828;44.530;0.094;2023-03-23T07:59:02;0.17;;;0.17;;
76568;SDS011;66828;44.530;0.094;2023-03-23T08:19:31;0.10;;;0.10;;
76568;SDS011;66828;44.530;0.094;2023-03-23T08:40:01;0.07;;;0.07;;
76568;SDS011;66828;44.530;0.094;2023-03-23T09:00:30;-1.00;;;-1.00;;
76568;SDS011;66828;44.530;0.094;2023-03-23T09:21:02;0.00;;;0.00;;
76568;SDS011;66828;44.530;0.094;2023-03-23T09:41:39;0.00;;;0.00;;
76568;SDS011;66828;44.530;0.094;2023-03-23T10:02:04;0.00;;;0.00;;
76568;SDS011;66828;44.530;0.094;2023-03-23T10:22:32;0.10;;;0.10;;
76568;SDS011;66828;44.530;0.094;2023-03-23T10:42:57;1.67;;;1.17;;
76568;SDS011;66828;44.530;0.094;2023-03-23T11:03:29;0.20;;;0.20;;
76568;SDS011;66828;44.530;0.094;2023-03-23T11:23:53;1.00;;;0.70;;
76568;SDS011;66828;44.530;0.094;2023-03-23T11:44:21;0.17;;;0.17;;
76568;SDS011;66828;44.530;0.094;2023-03-23T12:04:57;10.37;;;1.93;;
76568;SDS011;66828;44.530;0.094;2023-03-23T12:25:22;0.63;;;0.63;;
76568;SDS011;66828;44.530;0.094;2023-03-23T12:45:50;1.13;;;0.73;;
76568;SDS011;66828;44.530;0.094;2023-03-23T13:06:18;2.13;;;1.00;;
76568;SDS011;66828;44.530;0.094;2023-03-23T13:26:48;0.80;;;0.70;;
76568;SDS011;66828;44.530;0.094;2023-03-23T13:47:22;0.90;;;0.90;;
76568;SDS011;66828;44.530;0.094;2023-03-23T14:28:19;15.40;;;0.80;;
76568;SDS011;66828;44.530;0.094;2023-03-23T14:48:39;2.07;;;0.93;;
76568;SDS011;66828;44.530;0.094;2023-03-23T15:09:10;2.30;;;0.90;;
76568;SDS011;66828;44.530;0.094;2023-03-23T15:29:45;0.70;;;0.70;;
76568;SDS011;66828;44.530;0.094;2023-03-23T15:50:10;0.27;;;0.27;;
76568;SDS011;66828;44.530;0.094;2023-03-23T16:10:32;1.90;;;0.93;;
76568;SDS011;66828;44.530;0.094;2023-03-23T16:30:59;1.73;;;0.87;;
76568;SDS011;66828;44.530;0.094;2023-03-23T16:51:27;0.20;;;0.20;;
76568;SDS011;66828;44.530;0.094;2023-03-23T17:11:55;0.17;;;0.17;;
76568;SDS011;66828;44.530;0.094;2023-03-23T17:32:22;1.37;;;1.27;;
76568;SDS011;66828;44.530;0.094;2023-03-23T17:52:50;0.50;;;0.50;;
76568;SDS011;66828;44.530;0.094;2023-03-23T18:13:19;0.20;;;0.20;;
76568;SDS011;66828;44.530;0.094;2023-03-23T18:33:47;0.73;;;0.40;;
76568;SDS011;66828;44.530;0.094;2023-03-23T18:54:14;0.67;;;0.67;;
76568;SDS011;66828;44.530;0.094;2023-03-23T19:14:43;2.87;;;2.60;;
76568;SDS011;66828;44.530;0.094;2023-03-23T19:35:11;5.07;;;3.33;;
76568;SDS011;66828;44.530;0.094;2023-03-23T19:55:40;7.93;;;2.87;;
76568;SDS011;66828;44.530;0.094;2023-03-23T20:16:08;3.70;;;2.53;;
76568;SDS011;66828;44.530;0.094;2023-03-23T20:36:37;6.03;;;3.57;;
76568;SDS011;66828;44.530;0.094;2023-03-23T20:57:03;4.87;;;3.37;;
76568;SDS011;66828;44.530;0.094;2023-03-23T21:17:31;10.80;;;3.87;;
76568;SDS011;66828;44.530;0.094;2023-03-23T21:37:59;8.17;;;4.23;;
76568;SDS011;66828;44.530;0.094;2023-03-23T21:58:28;0.77;;;0.77;;
76568;SDS011;66828;44.530;0.094;2023-03-23T22:18:57;4.63;;;4.17;;
76568;SDS011;66828;44.530;0.094;2023-03-23T22:39:24;7.03;;;5.10;;
76568;SDS011;66828;44.530;0.094;2023-03-23T22:59:52;8.67;;;5.00;;
76568;SDS011;66828;44.530;0.094;2023-03-23T23:20:21;11.40;;;4.73;;
76568;SDS011;66828;44.530;0.094;2023-03-23T23:40:49;4.37;;;2.47;;
